»·PEaware :: SWA922 KPHX-KSNA

SWA922 :: KPHX-KSNA

FLIGHT INFORMATION

Flight Status: Arrived
Operator:
Southwest Airlines
More flights by this operator :: More flights under this callsign
Pilot: Sean B. (13609)
Aircraft: BOEING 737-800
(B738)
More flights by this aircraft type
Origin: KPHX Phoenix Sky Harbor Intl
United States
Destination: KSNA John Wayne-Orange Co
United States
More flights between these airports :: More routes between these airports
Route: +IZZZO6 HRRBR EMLLD DSNEE1
File this flight plan on PilotEdge
Remarks:
Altitude:
(Current/Filed)
36,000ft
Speed:
(Current/Filed)
430kts
Departed: 05-Oct-17 02:20 PM
Arrived: 05-Oct-17 03:19 PM
Distance/Time
Traveled:
293nm/0:59
Distance/Time
To Go:
Arrived

Flight Plot

Page will automatically refresh every two minutes.

Flight plan parsing failed; only flown route is shown


Map Options




Map Legend


Flown Route
Filed Route
Departure Airport
Arrival Airport
Navaid (VOR, NDB)
Fix

Horizontal Profiles

Position Reports

Time Latitude Longitude Heading Altitude Ground
Speed
05-Oct-17 13:44 33.433685 -111.994859 82 1116ft 0kts
05-Oct-17 13:45 33.433685 -111.994859 82 1116ft 0kts
05-Oct-17 13:46 33.433685 -111.994859 82 1116ft 0kts
05-Oct-17 13:47 33.433685 -111.994859 82 1116ft 0kts
05-Oct-17 13:48 33.433685 -111.994859 82 1116ft 0kts
05-Oct-17 13:49 33.433685 -111.994859 82 1116ft 0kts
05-Oct-17 13:50 33.433685 -111.994859 82 1116ft 0kts
05-Oct-17 13:51 33.433685 -111.994859 82 1116ft 0kts
05-Oct-17 13:52 33.433685 -111.994859 82 1116ft 0kts
05-Oct-17 13:53 33.433685 -111.994859 82 1116ft 0kts
05-Oct-17 13:54 33.433685 -111.994859 82 1116ft 0kts
05-Oct-17 13:55 33.433685 -111.994859 82 1116ft 0kts
05-Oct-17 13:56 33.433685 -111.994859 82 1116ft 0kts
05-Oct-17 13:57 33.433685 -111.994859 82 1116ft 0kts
05-Oct-17 13:58 33.433685 -111.994859 82 1116ft 0kts
05-Oct-17 13:59 33.433685 -111.994859 82 1116ft 0kts
05-Oct-17 14:00 33.433685 -111.994859 82 1116ft 0kts
05-Oct-17 14:01 33.433685 -111.994859 82 1116ft 0kts
05-Oct-17 14:02 33.433685 -111.994859 82 1116ft 0kts
05-Oct-17 14:03 33.433685 -111.994859 82 1116ft 0kts
05-Oct-17 14:04 33.433685 -111.994859 82 1116ft 0kts
05-Oct-17 14:05 33.433685 -111.994859 82 1116ft 0kts
05-Oct-17 14:06 33.433685 -111.994859 82 1116ft 0kts
05-Oct-17 14:07 33.433685 -111.994859 82 1116ft 0kts
05-Oct-17 14:08 33.433685 -111.994859 82 1116ft 0kts
05-Oct-17 14:09 33.433685 -111.994859 82 1116ft 0kts
05-Oct-17 14:10 33.433685 -111.994859 82 1116ft 0kts
05-Oct-17 14:11 33.433685 -111.994859 82 1116ft 0kts
05-Oct-17 14:12 33.433685 -111.994859 82 1116ft 0kts
05-Oct-17 14:13 33.433667 -111.995184 163 1116ft 0kts
05-Oct-17 14:14 33.434066 -111.995267 172 1116ft 0kts
05-Oct-17 14:15 33.434066 -111.995267 172 1116ft 0kts
05-Oct-17 14:16 33.434066 -111.995267 172 1116ft 0kts
05-Oct-17 14:17 33.434066 -111.995267 172 1116ft 0kts
05-Oct-17 14:18 33.433979 -111.995264 182 1116ft 2kts
05-Oct-17 14:19 33.433401 -111.995313 178 1116ft 0kts
05-Oct-17 14:20 33.433018 -111.995285 165 1116ft 1kts
05-Oct-17 14:21 33.432837 -111.994074 89 1116ft 6kts
05-Oct-17 14:22 33.432127 -111.993447 184 1116ft 0kts
05-Oct-17 14:23 33.431864 -111.993474 184 1116ft 5kts
05-Oct-17 14:24 33.431037 -112.006769 269 1117ft 148kts
05-Oct-17 14:25 33.432185 -112.072356 272 2827ft 245kts
05-Oct-17 14:26 33.435295 -112.156981 272 5343ft 276kts
05-Oct-17 14:27 33.438547 -112.247557 271 8519ft 280kts
05-Oct-17 14:28 33.441718 -112.341589 270 10826ft 311kts
05-Oct-17 14:29 33.445246 -112.448318 270 13271ft 330kts
05-Oct-17 14:30 33.448610 -112.557169 272 16041ft 335kts
05-Oct-17 14:31 33.450925 -112.663221 270 18954ft 341kts
05-Oct-17 14:32 33.452405 -112.771102 270 20984ft 354kts
05-Oct-17 14:33 33.469006 -112.885036 280 23626ft 361kts
05-Oct-17 14:34 33.490270 -112.999909 280 25970ft 369kts
05-Oct-17 14:35 33.512198 -113.117916 279 28478ft 363kts
05-Oct-17 14:36 33.533330 -113.232284 278 30897ft 350kts
05-Oct-17 14:37 33.553830 -113.344122 277 32666ft 345kts
05-Oct-17 14:38 33.573544 -113.452152 276 34184ft 340kts
05-Oct-17 14:39 33.593498 -113.560594 277 35484ft 336kts
05-Oct-17 14:40 33.613427 -113.668011 276 35880ft 348kts
05-Oct-17 14:41 33.634714 -113.783021 277 35889ft 371kts
05-Oct-17 14:42 33.657815 -113.883060 286 35915ft 399kts
05-Oct-17 14:43 33.710723 -114.022918 288 35889ft 400kts
05-Oct-17 14:44 33.755005 -114.142939 278 35865ft 392kts
05-Oct-17 14:45 33.772261 -114.270174 273 35884ft 388kts
05-Oct-17 14:46 33.784878 -114.376259 273 35883ft 389kts
05-Oct-17 14:47 33.799609 -114.503205 273 35882ft 389kts
05-Oct-17 14:48 33.814290 -114.631604 273 35880ft 389kts
05-Oct-17 14:49 33.827123 -114.744780 272 35891ft 388kts
05-Oct-17 14:50 33.843903 -114.894097 272 35890ft 388kts
05-Oct-17 14:51 33.855448 -114.997503 272 35889ft 388kts
05-Oct-17 14:52 33.869604 -115.123335 271 35885ft 385kts
05-Oct-17 14:53 33.883193 -115.249762 272 35914ft 387kts
05-Oct-17 14:54 33.897102 -115.377252 272 36017ft 388kts
05-Oct-17 14:55 33.910136 -115.497212 272 35725ft 336kts
05-Oct-17 14:56 33.921358 -115.603134 271 34323ft 322kts
05-Oct-17 14:57 33.929750 -115.701267 270 32938ft 337kts
05-Oct-17 14:58 33.937227 -115.804094 269 31470ft 341kts
05-Oct-17 14:59 33.944783 -115.914807 271 29913ft 348kts
05-Oct-17 15:00 33.952801 -116.029152 271 28309ft 356kts
05-Oct-17 15:01 33.960804 -116.145612 272 26673ft 365kts
05-Oct-17 15:02 33.959821 -116.235990 261 25392ft 366kts
05-Oct-17 15:03 33.948889 -116.329388 261 24070ft 360kts
05-Oct-17 15:04 33.934854 -116.444625 261 22403ft 354kts
05-Oct-17 15:05 33.920821 -116.557324 261 20705ft 348kts
05-Oct-17 15:06 33.908527 -116.653256 260 19323ft 344kts
05-Oct-17 15:07 33.897421 -116.738187 261 18120ft 338kts
05-Oct-17 15:08 33.885274 -116.846506 262 16059ft 337kts
05-Oct-17 15:09 33.873511 -116.953920 262 13892ft 324kts
05-Oct-17 15:10 33.862253 -117.055876 262 13262ft 319kts
05-Oct-17 15:11 33.850703 -117.159517 262 12064ft 318kts
05-Oct-17 15:12 33.839174 -117.261835 263 10608ft 312kts
05-Oct-17 15:13 33.828562 -117.355678 263 9239ft 266kts
05-Oct-17 15:14 33.819740 -117.432658 264 8121ft 221kts
05-Oct-17 15:15 33.811753 -117.504998 271 7587ft 229kts
05-Oct-17 15:16 33.811524 -117.579771 271 6175ft 234kts
05-Oct-17 15:17 33.811631 -117.651953 271 5999ft 219kts
05-Oct-17 15:18 33.816502 -117.719154 276 4973ft 228kts
05-Oct-17 15:19 33.812901 -117.788915 236 3383ft 215kts
05-Oct-17 15:20 33.767095 -117.812683 203 2014ft 187kts
05-Oct-17 15:21 33.729133 -117.834972 208 1107ft 144kts
05-Oct-17 15:22 33.694433 -117.856959 208 327ft 145kts
05-Oct-17 15:23 33.671488 -117.871542 208 53ft 27kts
05-Oct-17 15:24 33.669195 -117.871592 120 53ft 0kts
05-Oct-17 15:25 33.669128 -117.870997 52 53ft 4kts
05-Oct-17 15:26 33.671069 -117.868892 41 53ft 11kts
05-Oct-17 15:27 33.673671 -117.866760 26 53ft 11kts
05-Oct-17 15:28 33.675543 -117.865311 105 53ft 2kts
05-Oct-17 15:29 33.675385 -117.864907 117 53ft 0kts

Navigation Log

Ident Type
Flight plan parsing failed, navigation log unavailable